createdAt,value
2018-02-20T00:00:34.920Z,99.90
2018-02-20T00:03:01.320Z,99.90
2018-02-20T00:05:27.616Z,99.90
2018-02-20T00:07:54.013Z,99.90
2018-02-20T00:10:20.611Z,99.90
2018-02-20T00:12:46.947Z,99.90
2018-02-20T00:15:13.704Z,99.90
2018-02-20T00:17:40.799Z,99.90
2018-02-20T00:20:07.093Z,99.90
2018-02-20T00:22:34.996Z,99.90
2018-02-20T00:25:01.765Z,99.90
2018-02-20T00:27:28.047Z,99.90
2018-02-20T00:29:54.428Z,99.90
2018-02-20T00:32:20.903Z,99.90
2018-02-20T00:34:47.299Z,99.90
2018-02-20T00:37:13.729Z,99.90
2018-02-20T00:39:40.887Z,99.90
2018-02-20T00:42:07.578Z,99.90
2018-02-20T00:44:33.917Z,99.90
2018-02-20T00:47:00.311Z,99.90
2018-02-20T00:49:27.372Z,99.90
2018-02-20T00:51:53.707Z,99.90
2018-02-20T00:54:20.291Z,99.90
2018-02-20T01:02:27.478Z,99.90
2018-02-20T01:04:54.655Z,99.90
2018-02-20T01:07:21.463Z,99.90
2018-02-20T01:09:47.929Z,99.90
2018-02-20T01:12:15.095Z,99.90
2018-02-20T01:26:04.155Z,99.90
2018-02-20T01:28:30.644Z,99.90
2018-02-20T01:30:57.048Z,99.90
2018-02-20T01:33:23.453Z,99.90
2018-02-20T01:35:50.553Z,99.90
2018-02-20T01:38:17.129Z,99.90
2018-02-20T01:40:43.600Z,99.90
2018-02-20T01:43:10.864Z,99.90
2018-02-20T02:03:33.379Z,99.90
2018-02-20T02:06:00.878Z,99.90
2018-02-20T02:08:27.258Z,99.90
2018-02-20T02:10:53.657Z,99.90
2018-02-20T02:13:19.993Z,99.90
2018-02-20T02:15:46.406Z,99.90
2018-02-20T02:18:14.608Z,99.90
2018-02-20T02:20:41.774Z,99.90
2018-02-20T02:23:08.159Z,99.90
2018-02-20T02:25:34.650Z,99.90
2018-02-20T02:30:29.492Z,99.90
2018-02-20T02:53:54.602Z,99.90
2018-02-20T02:56:21.077Z,99.90
2018-02-20T02:58:48.931Z,99.90
2018-02-20T03:01:15.517Z,99.90
2018-02-20T03:03:42.252Z,99.90
2018-02-20T03:06:08.646Z,99.90
2018-02-20T03:08:35.402Z,99.90
2018-02-20T03:11:03.856Z,99.90
2018-02-20T03:13:31.032Z,99.90
2018-02-20T03:15:57.422Z,99.90
2018-02-20T03:18:24.214Z,99.90
2018-02-20T03:20:51.723Z,99.90
2018-02-20T03:28:14.567Z,99.90
2018-02-20T03:30:41.941Z,99.90
2018-02-20T03:33:09.482Z,99.90
2018-02-20T03:35:35.872Z,99.90
2018-02-20T03:38:02.541Z,99.90
2018-02-20T03:40:30.113Z,99.90
2018-02-20T03:42:57.249Z,99.90
2018-02-20T03:45:23.623Z,99.90
2018-02-20T03:47:51.490Z,99.90
2018-02-20T03:50:17.848Z,99.90
2018-02-20T03:52:45.512Z,99.90
2018-02-20T03:55:11.968Z,99.90
2018-02-20T03:57:39.429Z,99.90
2018-02-20T04:00:06.602Z,99.90
2018-02-20T04:02:34.672Z,99.90
2018-02-20T04:09:58.024Z,99.90
2018-02-20T04:12:24.356Z,99.90
2018-02-20T04:14:52.253Z,99.90
2018-02-20T04:17:18.713Z,99.90
2018-02-20T04:19:51.230Z,99.90
2018-02-20T04:22:17.591Z,99.90
2018-02-20T04:24:44.098Z,99.90
2018-02-20T04:27:11.284Z,99.90
2018-02-20T04:29:38.039Z,99.90
2018-02-20T04:32:05.057Z,99.90
2018-02-20T04:34:31.464Z,99.90
2018-02-20T04:36:58.134Z,99.90
2018-02-20T04:39:24.617Z,99.90
2018-02-20T04:41:51.386Z,99.90
2018-02-20T04:44:18.529Z,99.90
2018-02-20T04:46:45.435Z,99.90
2018-02-20T04:49:11.845Z,99.90
2018-02-20T04:51:38.656Z,99.90
2018-02-20T04:54:05.147Z,99.90
2018-02-20T04:56:31.518Z,99.90
2018-02-20T04:58:58.957Z,99.90
2018-02-20T05:01:26.156Z,99.90
2018-02-20T05:03:53.200Z,99.90
2018-02-20T05:06:19.668Z,99.90
2018-02-20T05:08:46.035Z,99.90
2018-02-20T05:11:12.401Z,99.90
2018-02-20T05:13:38.760Z,99.90
2018-02-20T05:16:05.266Z,99.90
2018-02-20T05:18:31.698Z,99.90
2018-02-20T05:20:58.081Z,99.90
2018-02-20T05:23:25.540Z,99.90
2018-02-20T05:25:51.949Z,99.90
2018-02-20T05:28:18.658Z,99.90
2018-02-20T05:30:45.000Z,99.90
2018-02-20T05:33:12.885Z,99.90
2018-02-20T05:40:36.035Z,99.90
2018-02-20T05:43:03.399Z,99.90
2018-02-20T05:45:30.709Z,99.90
2018-02-20T05:47:57.557Z,99.90
2018-02-20T05:50:25.252Z,99.90
2018-02-20T05:52:51.732Z,99.90
2018-02-20T05:55:18.667Z,99.90
2018-02-20T05:57:45.019Z,99.90
2018-02-20T06:00:11.794Z,99.90
2018-02-20T06:02:38.942Z,99.90
2018-02-20T06:05:06.386Z,99.90
2018-02-20T06:07:32.770Z,99.90
2018-02-20T06:09:59.479Z,99.90
2018-02-20T06:14:54.090Z,99.90
2018-02-20T06:17:20.521Z,99.90
2018-02-20T06:19:47.210Z,99.90
2018-02-20T06:22:14.097Z,99.90
2018-02-20T06:27:08.614Z,99.90
2018-02-20T06:29:35.497Z,99.90
2018-02-20T06:32:04.023Z,99.90
2018-02-20T06:34:30.401Z,99.90
2018-02-20T06:36:57.182Z,99.90
2018-02-20T06:39:23.555Z,99.90
2018-02-20T06:41:50.702Z,99.90
2018-02-20T06:44:17.881Z,99.90
2018-02-20T06:46:44.268Z,99.90
2018-02-20T06:51:39.583Z,99.90
2018-02-20T06:54:06.738Z,99.90
2018-02-20T06:56:33.269Z,99.90
2018-02-20T06:58:59.617Z,99.90
2018-02-20T07:01:26.423Z,99.90
2018-02-20T07:06:21.825Z,99.90
2018-02-20T07:11:17.654Z,99.90
2018-02-20T07:13:45.202Z,99.90
2018-02-20T07:16:11.629Z,99.90
2018-02-20T07:18:38.096Z,99.90
2018-02-20T07:23:33.643Z,99.90
2018-02-20T07:26:01.106Z,99.90
2018-02-20T07:28:27.574Z,99.90
2018-02-20T07:33:23.584Z,99.90
2018-02-20T07:35:50.003Z,99.90
2018-02-20T07:38:16.708Z,99.90
2018-02-20T07:40:43.834Z,99.90
2018-02-20T07:43:10.630Z,99.90
2018-02-20T07:45:37.500Z,99.90
2018-02-20T07:50:33.890Z,99.90
2018-02-20T07:53:01.111Z,99.90
2018-02-20T07:55:28.236Z,99.90
2018-02-20T07:57:54.863Z,99.90
2018-02-20T08:00:22.724Z,99.90
2018-02-20T08:02:49.863Z,99.90
2018-02-20T08:05:17.491Z,99.90
2018-02-20T08:07:44.973Z,99.90
2018-02-20T08:10:11.382Z,99.90
2018-02-20T08:12:38.096Z,99.90
2018-02-20T08:15:05.624Z,99.90
2018-02-20T08:17:33.203Z,99.90
2018-02-20T08:19:59.580Z,99.90
2018-02-20T08:24:54.725Z,99.90
2018-02-20T08:27:21.141Z,99.90
2018-02-20T08:29:47.538Z,99.90
2018-02-20T08:32:13.989Z,99.90
2018-02-20T08:34:40.396Z,99.90
2018-02-20T08:37:07.675Z,99.90
2018-02-20T08:39:34.050Z,99.90
2018-02-20T08:42:00.492Z,99.90
2018-02-20T08:44:27.288Z,99.90
2018-02-20T08:51:50.020Z,99.90
2018-02-20T08:54:16.440Z,99.90
2018-02-20T08:56:43.609Z,99.90
2018-02-20T08:59:10.021Z,99.90
2018-02-20T09:01:36.360Z,99.90
2018-02-20T09:04:02.885Z,99.90
2018-02-20T09:06:29.345Z,99.90
2018-02-20T09:08:55.862Z,99.90
2018-02-20T09:11:23.827Z,99.90
2018-02-20T09:13:50.254Z,99.90
2018-02-20T09:16:16.797Z,99.90
2018-02-20T09:18:44.739Z,99.90
2018-02-20T09:21:11.920Z,99.90
2018-02-20T09:23:38.999Z,99.90
2018-02-20T09:26:05.413Z,99.90
2018-02-20T09:28:32.965Z,99.90
2018-02-20T09:31:00.071Z,99.90
2018-02-20T09:33:27.002Z,99.90
2018-02-20T09:38:21.549Z,99.90
2018-02-20T09:40:49.521Z,99.90
2018-02-20T09:45:51.162Z,99.90
2018-02-20T09:50:47.141Z,99.90
2018-02-20T09:53:14.265Z,99.90
2018-02-20T09:55:41.581Z,99.90
2018-02-20T09:58:08.164Z,99.90
2018-02-20T10:00:35.385Z,99.90
2018-02-20T10:03:04.333Z,99.90
2018-02-20T10:05:31.631Z,99.90
2018-02-20T10:08:03.809Z,99.90
2018-02-20T10:10:30.779Z,99.90
2018-02-20T10:12:57.278Z,99.90
2018-02-20T10:15:24.108Z,99.90
2018-02-20T10:17:50.547Z,99.90
2018-02-20T10:20:18.002Z,99.90
2018-02-20T10:22:45.116Z,99.90
2018-02-20T10:25:13.044Z,99.90
2018-02-20T10:30:07.566Z,99.90
2018-02-20T10:35:03.262Z,99.90
2018-02-20T10:39:58.532Z,99.90
2018-02-20T10:47:21.958Z,99.90
2018-02-20T10:49:49.289Z,99.90
2018-02-20T10:52:16.329Z,99.90
2018-02-20T10:57:12.031Z,99.90
2018-02-20T10:59:38.518Z,99.90
2018-02-20T11:02:06.517Z,99.90
2018-02-20T11:09:32.051Z,99.90
2018-02-20T11:11:58.764Z,99.90
2018-02-20T11:14:25.608Z,94.80
2018-02-20T11:16:52.098Z,93.50
2018-02-20T11:19:18.496Z,89.10
2018-02-20T11:21:46.065Z,63.60
2018-02-20T11:24:12.537Z,77.30
2018-02-20T11:29:07.832Z,58.70
2018-02-20T11:31:34.665Z,61.60
2018-02-20T11:34:01.132Z,70.70
2018-02-20T11:36:27.616Z,72.70
2018-02-20T11:38:53.979Z,68.00
2018-02-20T11:41:20.772Z,61.30
2018-02-20T11:43:47.981Z,56.50
2018-02-20T11:48:43.288Z,54.00
2018-02-20T11:51:10.031Z,67.20
2018-02-20T11:53:36.569Z,69.60
2018-02-20T12:01:01.429Z,55.40
2018-02-20T12:03:28.897Z,59.10
2018-02-20T12:05:56.055Z,56.40
2018-02-20T12:08:22.437Z,76.10
2018-02-20T12:10:48.858Z,69.30
2018-02-20T12:13:16.069Z,53.90
2018-02-20T12:15:43.290Z,51.80
2018-02-20T12:20:37.784Z,62.60
2018-02-20T12:23:04.242Z,68.90
2018-02-20T12:25:31.093Z,54.60
2018-02-20T12:27:57.990Z,59.10
2018-02-20T12:30:25.554Z,60.80
2018-02-20T12:32:52.332Z,61.10
2018-02-20T12:35:20.482Z,59.20
2018-02-20T12:37:47.043Z,78.30
2018-02-20T12:40:14.052Z,78.20
2018-02-20T12:42:41.113Z,87.30
2018-02-20T12:45:08.256Z,75.00
2018-02-20T12:47:35.110Z,66.00
2018-02-20T12:50:01.625Z,73.30
2018-02-20T12:54:57.263Z,62.60
2018-02-20T12:57:23.850Z,61.40
2018-02-20T12:59:50.292Z,59.50
2018-02-20T13:02:17.487Z,44.10
2018-02-20T13:04:44.284Z,43.20
2018-02-20T13:07:10.684Z,55.90
2018-02-20T13:09:37.113Z,54.30
2018-02-20T13:12:04.061Z,41.90
2018-02-20T13:14:30.910Z,44.80
2018-02-20T13:16:57.358Z,56.30
2018-02-20T13:19:23.783Z,51.90
2018-02-20T13:21:50.941Z,41.30
2018-02-20T13:26:46.620Z,39.60
2018-02-20T13:29:13.038Z,49.80
2018-02-20T13:31:39.812Z,44.10
2018-02-20T13:34:06.265Z,47.10
2018-02-20T13:36:32.951Z,50.30
2018-02-20T13:39:01.245Z,36.40
2018-02-20T13:41:28.357Z,46.60
2018-02-20T13:46:24.147Z,35.40
2018-02-20T13:48:51.322Z,35.70
2018-02-20T13:51:18.586Z,35.00
2018-02-20T13:56:17.436Z,36.20
2018-02-20T13:58:44.526Z,38.50
2018-02-20T14:01:10.949Z,53.00
2018-02-20T14:03:38.123Z,45.60
2018-02-20T14:06:04.508Z,56.50
2018-02-20T14:08:32.011Z,48.60
2018-02-20T14:10:58.767Z,50.80
2018-02-20T14:15:54.310Z,54.10
2018-02-20T14:18:21.085Z,54.70
2018-02-20T14:20:48.189Z,50.10
2018-02-20T14:23:15.594Z,57.80
2018-02-20T14:25:43.135Z,47.10
2018-02-20T14:28:13.919Z,48.40
2018-02-20T14:30:41.716Z,46.70
2018-02-20T14:38:13.883Z,46.10
2018-02-20T14:40:41.071Z,46.90
2018-02-20T14:45:37.808Z,59.10
2018-02-20T14:48:05.867Z,47.50
2018-02-20T14:53:00.632Z,60.90
2018-02-20T14:57:55.703Z,43.70
2018-02-20T15:00:23.304Z,44.20
2018-02-20T15:02:51.423Z,44.60
2018-02-20T15:05:19.069Z,43.90
2018-02-20T15:07:45.702Z,49.80
2018-02-20T15:10:12.292Z,49.20
2018-02-20T15:12:39.170Z,43.60
2018-02-20T15:15:07.037Z,44.40
2018-02-20T15:17:33.559Z,57.70
2018-02-20T15:20:00.004Z,58.90
2018-02-20T15:25:03.909Z,56.30
2018-02-20T15:29:58.671Z,60.70
2018-02-20T15:32:26.826Z,63.80
2018-02-20T15:37:27.423Z,51.10
2018-02-20T15:39:55.320Z,52.50
2018-02-20T15:42:22.140Z,56.70
2018-02-20T15:44:48.912Z,58.80
2018-02-20T15:47:15.511Z,74.90
2018-02-20T15:49:51.085Z,60.70
2018-02-20T15:52:18.337Z,65.20
2018-02-20T15:54:48.038Z,81.80
2018-02-20T15:57:28.615Z,95.00
2018-02-20T15:59:56.712Z,96.10
2018-02-20T16:02:24.769Z,99.90
2018-02-20T16:04:54.161Z,99.90
2018-02-20T16:07:21.455Z,99.90
2018-02-20T16:09:49.275Z,99.90
2018-02-20T16:12:15.729Z,99.90
2018-02-20T16:14:42.209Z,99.90
2018-02-20T16:17:09.713Z,99.90
2018-02-20T16:19:37.183Z,99.90
2018-02-20T16:24:38.500Z,99.90
2018-02-20T16:27:05.026Z,99.90
2018-02-20T16:29:31.565Z,99.90
2018-02-20T16:31:58.761Z,99.90
2018-02-20T16:34:28.221Z,99.90
2018-02-20T16:37:12.038Z,99.90
2018-02-20T16:39:38.953Z,99.90
2018-02-20T16:42:05.481Z,99.90
2018-02-20T16:44:32.631Z,99.90
2018-02-20T16:47:00.259Z,99.90
2018-02-20T16:49:27.382Z,99.90
2018-02-20T16:51:54.568Z,99.90
2018-02-20T16:59:18.594Z,99.90
2018-02-20T17:04:13.841Z,99.90
2018-02-20T17:06:45.555Z,99.90
2018-02-20T17:09:12.004Z,99.90
2018-02-20T17:11:39.142Z,99.90
2018-02-20T17:35:00.021Z,99.90
2018-02-20T17:58:29.015Z,99.90
2018-02-20T18:00:55.545Z,99.90
2018-02-20T18:05:52.546Z,99.90
2018-02-20T18:08:19.764Z,99.90
2018-02-20T18:10:46.244Z,99.90
2018-02-20T18:13:13.347Z,99.90
2018-02-20T18:15:40.345Z,99.90
2018-02-20T18:18:07.495Z,99.90
2018-02-20T18:20:34.468Z,99.90
2018-02-20T18:25:29.129Z,99.90
2018-02-20T18:27:57.177Z,99.90
2018-02-20T18:30:24.112Z,99.90
2018-02-20T18:32:51.759Z,99.90
2018-02-20T18:35:20.067Z,99.90
2018-02-20T18:37:46.537Z,99.90
2018-02-20T18:45:11.897Z,99.90
2018-02-20T18:47:40.325Z,99.90
2018-02-20T18:50:09.803Z,99.90
2018-02-20T18:52:39.787Z,99.90
2018-02-20T18:55:10.775Z,99.90
2018-02-20T18:57:38.027Z,99.90
2018-02-20T19:11:08.111Z,99.90
2018-02-20T19:13:35.116Z,99.90
2018-02-20T19:16:04.197Z,99.90
2018-02-20T19:18:34.660Z,99.90
2018-02-20T19:21:02.440Z,99.90
2018-02-20T19:23:30.681Z,99.90
2018-02-20T19:28:27.479Z,99.90
2018-02-20T19:30:55.437Z,99.90
2018-02-20T19:35:51.898Z,99.90
2018-02-20T19:38:18.473Z,99.90
2018-02-20T19:40:45.819Z,99.90
2018-02-20T19:43:13.115Z,99.90
2018-02-20T19:45:39.584Z,99.90
2018-02-20T19:48:06.818Z,99.90
2018-02-20T19:55:32.097Z,99.90
2018-02-20T20:00:27.702Z,99.90
2018-02-20T20:02:54.256Z,99.90
2018-02-20T20:05:21.823Z,99.90
2018-02-20T20:07:48.247Z,99.90
2018-02-20T20:10:14.708Z,99.90
2018-02-20T20:12:42.307Z,99.90
2018-02-20T20:17:39.375Z,99.90
2018-02-20T20:20:07.267Z,99.90
2018-02-20T20:22:35.824Z,99.90
2018-02-20T20:29:59.293Z,99.90
2018-02-20T20:32:27.235Z,99.90
2018-02-20T20:34:55.739Z,99.90
2018-02-20T20:39:51.346Z,99.90
2018-02-20T20:47:15.979Z,99.90
2018-02-20T20:49:42.502Z,99.90
2018-02-20T20:52:09.723Z,99.90
2018-02-20T20:54:36.526Z,99.90
2018-02-20T20:57:04.000Z,99.90
2018-02-20T20:59:30.801Z,99.90
2018-02-20T21:01:58.325Z,99.90
2018-02-20T21:04:26.322Z,99.90
2018-02-20T21:06:53.776Z,99.90
2018-02-20T21:09:21.616Z,99.90
2018-02-20T21:11:48.143Z,99.90
2018-02-20T21:14:14.589Z,99.90
2018-02-20T21:16:41.039Z,99.90
2018-02-20T21:19:07.891Z,99.90
2018-02-20T21:21:35.073Z,99.90
2018-02-20T21:24:01.596Z,99.90
2018-02-20T21:26:28.093Z,99.90
2018-02-20T21:28:54.528Z,99.90
2018-02-20T21:31:22.253Z,99.90
2018-02-20T21:33:48.749Z,99.90
2018-02-20T21:36:15.353Z,99.90
2018-02-20T21:38:41.867Z,99.90
2018-02-20T21:41:09.864Z,99.90
2018-02-20T21:43:37.175Z,99.90
2018-02-20T21:46:04.466Z,99.90
2018-02-20T21:48:31.188Z,99.90
2018-02-20T21:50:58.395Z,99.90
2018-02-20T21:53:31.713Z,99.90
2018-02-20T21:55:59.641Z,99.90
2018-02-20T21:58:26.056Z,99.90
2018-02-20T22:00:53.212Z,99.90
2018-02-20T22:03:19.607Z,99.90
2018-02-20T22:05:46.120Z,99.90
2018-02-20T22:08:15.058Z,99.90
2018-02-20T22:10:42.216Z,99.90
2018-02-20T22:13:08.644Z,99.90
2018-02-20T22:15:35.041Z,99.90
2018-02-20T22:18:02.564Z,99.90
2018-02-20T22:22:57.270Z,99.90
2018-02-20T22:25:25.144Z,99.90
2018-02-20T22:27:51.542Z,99.90
2018-02-20T22:30:18.004Z,99.90
2018-02-20T22:32:45.507Z,99.90
2018-02-20T22:35:12.618Z,99.90
2018-02-20T22:37:40.479Z,99.90
2018-02-20T22:40:07.617Z,99.90
2018-02-20T22:42:34.634Z,99.90
2018-02-20T22:45:01.855Z,99.90
2018-02-20T22:47:28.368Z,99.90
2018-02-20T22:49:54.728Z,99.90
2018-02-20T22:52:22.318Z,99.90
2018-02-20T22:54:49.819Z,99.90
2018-02-20T22:57:16.655Z,99.90
2018-02-20T23:04:40.101Z,99.90
2018-02-20T23:07:06.507Z,99.90
2018-02-20T23:09:33.004Z,99.90
2018-02-20T23:11:59.605Z,99.90
2018-02-20T23:16:54.353Z,99.90
2018-02-20T23:19:20.703Z,99.90
2018-02-20T23:21:47.645Z,99.90
2018-02-20T23:24:14.837Z,99.90
2018-02-20T23:26:42.548Z,99.90
2018-02-20T23:29:10.084Z,99.90
2018-02-20T23:31:37.280Z,99.90
2018-02-20T23:34:03.699Z,99.90
2018-02-20T23:36:31.236Z,99.90
2018-02-20T23:38:58.422Z,99.90
2018-02-20T23:41:24.923Z,99.90
2018-02-20T23:43:51.862Z,99.90
2018-02-20T23:48:57.727Z,99.90
2018-02-20T23:51:30.277Z,99.90
2018-02-20T23:53:56.637Z,99.90
2018-02-20T23:56:23.802Z,99.90
2018-02-20T23:58:50.552Z,99.90
